Logan, North Dakota
Current Conditions -  °F | °C
As of 8:54 AM on Saturday 01 Nov 2014 (Local Time) from KMOT Reporting Station
Clear Clear  
Wind Chill: 22°   Ceiling: Unl
Heat Index: 31°   Visibility: 10mi
Dew Point: 18°   Wind: 10mph
Humidity: 59%   Direction: 130°SE
Pressure: 29.84"   Gusts: NA
Location:  48.1414°N, 101.387°W
Report Text: KMOT 011354Z 13009KT 10SM CLR M01/M08 A2984 RMK AO2 SLP125 T10061078
Loading
Personal Weather Stations






























Interactive Weather Map
Tropical Storm Tracking
New forecast layout! Learn more

10-Day Weather Forecast

Advertisements
Track Severe Weather on mobile